Sault Sainte Marie, MI (49783)

8:27 PM EST on February 09, 2016 (GMT -0500)
Sault Ste Marie Municipal / Sanderson Field | | Change Station
CLOSE
Current Station
Airport
Location: Sault Ste Marie,
Elevation: 715 ft
Nearby Weather Stations

Elev 715 ft 46.48 °N, 84.36 °W | Updated 32 minutes ago

Light Snow
Light Snow
16 °F
Feels Like 4 °F
N
10
Wind Variable Wind from North

Today
High -- | Low -- °F
--% Chance of Precip.
Yesterday
High -- | Low -- °F
Precip. -- in
Pressure 29.74 in
Visibility 6.0 miles
Clouds Few 1800 ft
Mostly Cloudy 3200 ft
Overcast 8500 ft
Windchill 4 °F
Dew Point 8 °F
Humidity 71%
Rainfall 0.06 in
Snow Depth Not available.
7:50 AM 5:53 PM
Waxing Crescent, 3% visible
METAR KANJ 100055Z AUTO 35009KT 6SM -SN FEW018 BKN032 OVC085 M09/M13 A2971 RMK AO2 SNB02 SLP069 P0000 T10891133
Pressure 29.74 in
Visibility 6.0 miles
Clouds Few 1800 ft
Mostly Cloudy 3200 ft
Overcast 8500 ft
Windchill 4 °F
Dew Point 8 °F
Humidity 71%
Rainfall 0.06 in
Snow Depth Not available.
7:50 AM 5:53 PM
Waxing Crescent, 3% visible
METAR KANJ 100055Z AUTO 35009KT 6SM -SN FEW018 BKN032 OVC085 M09/M13 A2971 RMK AO2 SNB02 SLP069 P0000 T10891133

10-Day Weather Forecast

Almanac

Astronomy

Feb. 09, 2016 Rise Set
Actual Time
Civil Twilight
Nautical Twilight
Astronomical Twilight
Moon
Length of Visible Light
Length of Day
Tomorrow will be .
, % of the Moon is Illuminated

Today's Extremes

State Highs State Lows

Community

WunderPhotos

Upload Photos

1,891,758 photos uploaded!

WunderBlog® & News

Nearby

Air Quality

  Air Quality AQ Index Pollutant
Not available.

Snow Depth

Station Depth Elevation

Earthquake Activity

City Distance Mag. Time & Date
Minimum magnitude displayed is 2.5.

Coastal Water Temperatures

Place Temperature

Stations

Nearby Weather Stations

Station Location Temp. Windchill Dew Point Humidity Wind Precip. Elev Updated Type
                   

Watches & Warnings

There are currently no watches in effect.